createdAt,value
2022-08-30T00:02:20.875Z,102103.06
2022-08-30T00:04:49.813Z,102097.69
2022-08-30T00:07:19.035Z,102097.84
2022-08-30T00:09:48.093Z,102104.22
2022-08-30T00:12:14.688Z,102093.38
2022-08-30T00:14:41.241Z,102086.63
2022-08-30T00:17:07.856Z,102092.50
2022-08-30T00:19:34.389Z,102090.06
2022-08-30T00:22:01.000Z,102095.91
2022-08-30T00:24:27.838Z,102087.28
2022-08-30T00:26:56.609Z,102092.25
2022-08-30T00:29:23.204Z,102090.81
2022-08-30T00:31:49.918Z,102091.16
2022-08-30T00:34:18.737Z,102081.63
2022-08-30T00:36:47.835Z,102085.38
2022-08-30T00:39:14.410Z,102085.88
2022-08-30T00:41:40.956Z,102086.22
2022-08-30T00:44:07.917Z,102090.31
2022-08-30T00:46:34.493Z,102092.53
2022-08-30T00:49:05.385Z,102093.69
2022-08-30T00:51:34.782Z,102091.41
2022-08-30T00:54:01.866Z,102087.97
2022-08-30T00:56:29.794Z,102098.13
2022-08-30T00:59:01.840Z,102085.69
2022-08-30T01:01:30.321Z,102098.44
2022-08-30T01:04:00.185Z,102083.91
2022-08-30T01:06:32.833Z,102107.88
2022-08-30T01:09:04.350Z,102104.81
2022-08-30T01:11:34.693Z,102097.22
2022-08-30T01:14:03.152Z,102108.09
2022-08-30T01:16:32.356Z,102106.38
2022-08-30T01:19:00.299Z,102108.59
2022-08-30T01:21:35.343Z,102107.00
2022-08-30T01:24:02.847Z,102114.56
2022-08-30T01:26:30.981Z,102115.44
2022-08-30T01:29:04.887Z,102104.50
2022-08-30T01:31:32.731Z,102115.38
2022-08-30T01:34:01.227Z,102112.91
2022-08-30T01:36:27.877Z,102118.19
2022-08-30T01:38:57.564Z,102103.88
2022-08-30T01:41:24.009Z,102118.19
2022-08-30T01:43:52.515Z,102110.94
2022-08-30T01:46:20.942Z,102102.28
2022-08-30T01:48:51.957Z,102118.91
2022-08-30T01:51:23.920Z,102112.53
2022-08-30T01:53:50.776Z,102107.34
2022-08-30T01:56:17.865Z,102109.38
2022-08-30T01:58:45.104Z,102107.09
2022-08-30T02:01:16.625Z,102090.66
2022-08-30T02:03:46.974Z,102098.03
2022-08-30T02:06:16.973Z,102102.13
2022-08-30T02:08:44.146Z,102100.00
2022-08-30T02:11:11.856Z,102094.81
2022-08-30T02:13:40.229Z,102091.66
2022-08-30T02:16:13.722Z,102088.91
2022-08-30T02:18:40.407Z,102095.41
2022-08-30T02:21:08.330Z,102087.66
2022-08-30T02:23:35.911Z,102094.00
2022-08-30T02:26:03.472Z,102093.31
2022-08-30T02:28:30.401Z,102084.81
2022-08-30T02:30:59.239Z,102087.38
2022-08-30T02:33:28.191Z,102092.72
2022-08-30T02:35:56.140Z,102096.53
2022-08-30T02:38:23.778Z,102101.31
2022-08-30T02:40:51.021Z,102094.06
2022-08-30T02:43:17.899Z,102072.53
2022-08-30T02:45:44.789Z,102091.47
2022-08-30T02:48:11.391Z,102088.56
2022-08-30T02:50:43.208Z,102081.88
2022-08-30T02:53:16.235Z,102078.13
2022-08-30T02:55:45.877Z,102076.56
2022-08-30T02:58:12.608Z,102084.06
2022-08-30T03:00:39.889Z,102082.47
2022-08-30T03:03:07.461Z,102083.66
2022-08-30T03:05:35.097Z,102071.25
2022-08-30T03:08:04.681Z,102070.19
2022-08-30T03:10:31.839Z,102075.84
2022-08-30T03:12:58.557Z,102068.50
2022-08-30T03:15:25.791Z,102059.50
2022-08-30T03:17:54.055Z,102048.41
2022-08-30T03:20:22.145Z,102062.00
2022-08-30T03:22:48.847Z,102065.06
2022-08-30T03:25:16.325Z,102068.25
2022-08-30T03:27:45.377Z,102051.50
2022-08-30T03:30:14.538Z,102056.84
2022-08-30T03:32:42.017Z,102064.97
2022-08-30T03:35:10.278Z,102066.00
2022-08-30T03:37:37.221Z,102067.56
2022-08-30T03:40:07.987Z,102060.91
2022-08-30T03:42:35.359Z,102064.09
2022-08-30T03:45:02.449Z,102089.09
2022-08-30T03:47:30.288Z,102073.63
2022-08-30T03:49:57.682Z,102068.25
2022-08-30T03:52:26.687Z,102071.91
2022-08-30T03:54:53.260Z,102078.41
2022-08-30T03:57:24.537Z,102072.06
2022-08-30T03:59:51.776Z,102062.06
2022-08-30T04:02:21.348Z,102068.41
2022-08-30T04:04:48.125Z,102068.75
2022-08-30T04:07:14.770Z,102057.94
2022-08-30T04:09:41.843Z,102068.31
2022-08-30T04:12:10.630Z,102069.34
2022-08-30T04:14:37.463Z,102073.97
2022-08-30T04:17:04.556Z,102076.84
2022-08-30T04:19:31.408Z,102080.34
2022-08-30T04:21:58.073Z,102076.16
2022-08-30T04:24:25.375Z,102075.56
2022-08-30T04:26:54.445Z,102081.75
2022-08-30T04:29:20.948Z,102078.31
2022-08-30T04:31:47.781Z,102082.94
2022-08-30T04:34:17.253Z,102081.34
2022-08-30T04:36:48.048Z,102071.38
2022-08-30T04:39:16.318Z,102073.09
2022-08-30T04:41:42.894Z,102083.75
2022-08-30T04:44:09.468Z,102082.91
2022-08-30T04:46:44.446Z,102089.25
2022-08-30T04:49:13.605Z,102092.88
2022-08-30T04:51:40.337Z,102087.25
2022-08-30T04:54:06.946Z,102086.41
2022-08-30T04:56:33.706Z,102086.41
2022-08-30T04:59:00.408Z,102099.09
2022-08-30T05:01:29.776Z,102100.66
2022-08-30T05:03:57.593Z,102104.13
2022-08-30T05:06:27.496Z,102108.31
2022-08-30T05:08:54.946Z,102092.81
2022-08-30T05:11:21.796Z,102104.06
2022-08-30T05:13:48.753Z,102106.50
2022-08-30T05:16:19.501Z,102111.59
2022-08-30T05:18:48.970Z,102106.34
2022-08-30T05:21:18.896Z,102112.97
2022-08-30T05:23:47.627Z,102109.59
2022-08-30T05:26:25.162Z,102110.84
2022-08-30T05:28:52.473Z,102108.66
2022-08-30T05:31:33.130Z,102112.69
2022-08-30T05:34:00.251Z,102101.97
2022-08-30T05:36:29.590Z,102116.91
2022-08-30T05:38:56.911Z,102123.22
2022-08-30T05:41:26.649Z,102110.63
2022-08-30T05:43:58.748Z,102125.97
2022-08-30T05:46:29.406Z,102136.13
2022-08-30T05:48:57.090Z,102132.03
2022-08-30T05:51:29.138Z,102104.56
2022-08-30T05:53:57.917Z,102112.50
2022-08-30T05:56:31.834Z,102130.94
2022-08-30T05:59:01.239Z,102121.50
2022-08-30T06:01:33.146Z,102120.63
2022-08-30T06:04:04.175Z,102122.81
2022-08-30T06:06:33.691Z,102128.28
2022-08-30T06:09:00.441Z,102128.25
2022-08-30T06:11:27.897Z,102112.28
2022-08-30T06:13:55.722Z,102122.47
2022-08-30T06:16:25.380Z,102121.59
2022-08-30T06:18:52.877Z,102127.50
2022-08-30T06:21:22.333Z,102124.88
2022-08-30T06:23:49.567Z,102119.34
2022-08-30T06:26:16.889Z,102117.94
2022-08-30T06:28:43.620Z,102114.31
2022-08-30T06:31:12.489Z,102110.69
2022-08-30T06:33:39.914Z,102104.31
2022-08-30T06:36:09.809Z,102108.34
2022-08-30T06:38:37.072Z,102108.66
2022-08-30T06:41:13.395Z,102095.94
2022-08-30T06:43:40.506Z,102094.47
2022-08-30T06:46:11.939Z,102101.03
2022-08-30T06:48:38.808Z,102096.34
2022-08-30T06:51:09.137Z,102095.94
2022-08-30T06:53:38.060Z,102106.22
2022-08-30T06:56:08.516Z,102107.03
2022-08-30T06:58:37.510Z,102089.81
2022-08-30T07:01:08.467Z,102099.50
2022-08-30T07:03:35.628Z,102096.78
2022-08-30T07:06:02.372Z,102108.56
2022-08-30T07:08:29.295Z,102107.88
2022-08-30T07:10:55.992Z,102112.88
2022-08-30T07:13:24.083Z,102112.00
2022-08-30T07:15:51.810Z,102115.28
2022-08-30T07:18:37.673Z,102116.13
2022-08-30T07:21:33.602Z,102104.22
2022-08-30T07:24:06.114Z,102114.75
2022-08-30T07:26:41.303Z,102113.47
2022-08-30T07:29:09.326Z,102115.66
2022-08-30T07:31:37.546Z,102113.75
2022-08-30T07:34:05.700Z,102122.16
2022-08-30T07:36:32.982Z,102111.06
2022-08-30T07:39:02.422Z,102119.59
2022-08-30T07:41:38.536Z,102118.31
2022-08-30T07:44:07.398Z,102113.34
2022-08-30T07:46:34.224Z,102105.78
2022-08-30T07:49:04.130Z,102116.38
2022-08-30T07:51:31.756Z,102127.94
2022-08-30T07:53:58.661Z,102124.47
2022-08-30T07:56:25.661Z,102121.81
2022-08-30T07:58:53.289Z,102114.91
2022-08-30T08:01:21.042Z,102118.38
2022-08-30T08:03:50.400Z,102117.94
2022-08-30T08:06:19.548Z,102118.31
2022-08-30T08:08:46.460Z,102120.66
2022-08-30T08:11:17.018Z,102122.88
2022-08-30T08:13:53.632Z,102129.50
2022-08-30T08:16:23.254Z,102138.25
2022-08-30T08:18:50.353Z,102132.59
2022-08-30T08:21:16.906Z,102136.47
2022-08-30T08:23:46.044Z,102138.84
2022-08-30T08:26:14.769Z,102139.63
2022-08-30T08:28:41.444Z,102130.34
2022-08-30T08:31:19.541Z,102116.88
2022-08-30T08:33:46.195Z,102119.59
2022-08-30T08:36:13.018Z,102122.72
2022-08-30T08:38:39.678Z,102125.72
2022-08-30T08:41:13.221Z,102131.63
2022-08-30T08:43:40.480Z,102137.53
2022-08-30T08:46:36.448Z,102136.41
2022-08-30T08:49:08.571Z,102135.78
2022-08-30T08:51:57.662Z,102143.28
2022-08-30T08:54:49.349Z,102144.06
2022-08-30T08:57:17.038Z,102143.09
2022-08-30T08:59:45.602Z,102145.75
2022-08-30T09:02:28.515Z,102142.03
2022-08-30T09:05:01.945Z,102145.13
2022-08-30T09:07:34.740Z,102152.53
2022-08-30T09:10:01.739Z,102150.63
2022-08-30T09:12:28.950Z,102148.63
2022-08-30T09:15:05.906Z,102150.94
2022-08-30T09:17:50.009Z,102136.53
2022-08-30T09:20:43.271Z,102148.53
2022-08-30T09:23:16.367Z,102141.22
2022-08-30T09:25:59.285Z,102142.78
2022-08-30T09:28:28.524Z,102149.38
2022-08-30T09:31:12.092Z,102139.06
2022-08-30T09:33:39.263Z,102148.59
2022-08-30T09:36:25.602Z,102149.72
2022-08-30T09:39:13.692Z,102150.88
2022-08-30T09:41:43.673Z,102150.22
2022-08-30T09:44:16.574Z,102159.25
2022-08-30T09:46:47.349Z,102148.06
2022-08-30T09:49:31.993Z,102148.28
2022-08-30T09:52:26.345Z,102152.59
2022-08-30T09:55:14.428Z,102142.69
2022-08-30T09:57:48.997Z,102151.06
2022-08-30T10:00:22.705Z,102136.41
2022-08-30T10:03:03.512Z,102151.41
2022-08-30T10:05:30.794Z,102149.06
2022-08-30T10:08:06.503Z,102145.59
2022-08-30T10:10:56.189Z,102148.41
2022-08-30T10:13:29.617Z,102134.53
2022-08-30T10:16:09.394Z,102141.63
2022-08-30T10:18:48.085Z,102138.84
2022-08-30T10:21:26.948Z,102140.53
2022-08-30T10:23:56.459Z,102143.97
2022-08-30T10:26:32.801Z,102142.50
2022-08-30T10:29:06.353Z,102140.13
2022-08-30T10:31:48.797Z,102146.75
2022-08-30T10:34:25.198Z,102149.53
2022-08-30T10:36:59.871Z,102144.19
2022-08-30T10:39:32.768Z,102142.50
2022-08-30T10:42:17.695Z,102144.63
2022-08-30T10:44:49.781Z,102137.53
2022-08-30T10:47:27.812Z,102136.91
2022-08-30T10:50:04.170Z,102128.50
2022-08-30T10:52:41.009Z,102134.31
2022-08-30T10:55:18.933Z,102125.91
2022-08-30T10:57:48.086Z,102118.41
2022-08-30T11:00:28.528Z,102125.91
2022-08-30T11:03:36.334Z,102123.34
2022-08-30T11:06:35.417Z,102119.69
2022-08-30T11:09:20.209Z,102118.16
2022-08-30T11:12:11.142Z,102121.59
2022-08-30T11:14:43.996Z,102133.44
2022-08-30T11:17:40.232Z,102117.56
2022-08-30T11:20:29.656Z,102120.13
2022-08-30T11:23:26.832Z,102119.44
2022-08-30T11:25:59.381Z,102120.31
2022-08-30T11:28:38.500Z,102113.38
2022-08-30T11:31:32.974Z,102118.97
2022-08-30T11:34:00.892Z,102112.09
2022-08-30T11:36:37.625Z,102117.22
2022-08-30T11:39:31.930Z,102099.34
2022-08-30T11:42:31.050Z,102095.25
2022-08-30T11:45:25.130Z,102102.97
2022-08-30T11:48:07.380Z,102108.28
2022-08-30T11:50:52.668Z,102109.84
2022-08-30T11:53:30.583Z,102121.88
2022-08-30T11:56:18.625Z,102112.84
2022-08-30T11:58:52.024Z,102106.84
2022-08-30T12:01:51.720Z,102105.09
2022-08-30T12:04:17.309Z,102095.41
2022-08-30T12:06:52.295Z,102082.47
2022-08-30T12:09:24.929Z,102091.16
2022-08-30T12:11:53.686Z,102096.56
2022-08-30T12:14:51.617Z,102094.28
2022-08-30T12:17:42.313Z,102084.38
2022-08-30T12:20:22.564Z,102090.81
2022-08-30T12:22:50.883Z,102101.00
2022-08-30T12:25:39.118Z,102087.03
2022-08-30T12:28:28.091Z,102082.59
2022-08-30T12:30:55.428Z,102077.94
2022-08-30T12:33:40.184Z,102078.81
2022-08-30T12:36:13.134Z,102073.63
2022-08-30T12:38:40.650Z,102079.66
2022-08-30T12:41:07.258Z,102069.75
2022-08-30T12:43:47.552Z,102058.31
2022-08-30T12:46:20.133Z,102079.41
2022-08-30T12:48:48.222Z,102061.66
2022-08-30T12:51:37.223Z,102086.09
2022-08-30T12:54:14.746Z,102068.25
2022-08-30T12:57:03.705Z,102063.06
2022-08-30T13:00:03.630Z,102061.94
2022-08-30T13:02:52.222Z,102064.56
2022-08-30T13:05:47.902Z,102068.97
2022-08-30T13:08:14.810Z,102072.44
2022-08-30T13:10:54.714Z,102065.16
2022-08-30T13:13:31.707Z,102064.28
2022-08-30T13:16:11.900Z,102053.97
2022-08-30T13:18:40.082Z,102054.59
2022-08-30T13:21:26.811Z,102065.72
2022-08-30T13:24:04.832Z,102050.47
2022-08-30T13:26:35.643Z,102061.22
2022-08-30T13:29:10.428Z,102053.75
2022-08-30T13:31:37.404Z,102055.22
2022-08-30T13:34:05.033Z,102059.56
2022-08-30T13:36:35.397Z,102048.38
2022-08-30T13:39:05.375Z,102042.34
2022-08-30T13:41:34.483Z,102037.59
2022-08-30T13:44:12.971Z,102043.94
2022-08-30T13:46:43.019Z,102034.75
2022-08-30T13:52:19.864Z,102020.22
2022-08-30T13:54:51.129Z,102020.63
2022-08-30T14:00:12.678Z,102025.88
2022-08-30T14:02:45.464Z,102019.06
2022-08-30T14:05:46.369Z,102032.41
2022-08-30T14:08:01.724Z,102022.28
2022-08-30T14:10:31.053Z,102015.59
2022-08-30T14:13:04.824Z,102023.41
2022-08-30T14:15:38.850Z,102021.84
2022-08-30T14:18:07.009Z,102015.19
2022-08-30T14:20:38.728Z,102014.13
2022-08-30T14:23:10.307Z,101999.09
2022-08-30T14:25:40.855Z,102013.47
2022-08-30T14:28:08.135Z,102020.34
2022-08-30T14:30:36.494Z,102018.50
2022-08-30T14:33:05.294Z,102026.66
2022-08-30T14:35:32.110Z,102024.47
2022-08-30T14:37:59.327Z,102020.41
2022-08-30T14:40:25.948Z,102022.13
2022-08-30T14:42:52.591Z,102017.31
2022-08-30T14:45:19.528Z,102028.78
2022-08-30T14:47:47.131Z,102027.81
2022-08-30T14:50:15.239Z,102019.38
2022-08-30T14:52:42.144Z,102009.16
2022-08-30T14:55:17.014Z,102000.31
2022-08-30T14:57:46.497Z,102018.47
2022-08-30T15:00:14.404Z,102015.47
2022-08-30T15:02:41.019Z,102012.25
2022-08-30T15:05:08.416Z,102014.72
2022-08-30T15:07:37.536Z,102010.50
2022-08-30T15:10:05.896Z,102012.84
2022-08-30T15:12:32.779Z,102007.25
2022-08-30T15:14:59.778Z,102001.41
2022-08-30T15:17:26.544Z,102004.59
2022-08-30T15:19:54.492Z,102021.38
2022-08-30T15:22:21.079Z,101997.75
2022-08-30T15:24:48.936Z,101990.53
2022-08-30T15:27:19.756Z,102004.66
2022-08-30T15:29:46.358Z,101998.38
2022-08-30T15:32:13.650Z,101991.31
2022-08-30T15:34:40.168Z,101991.38
2022-08-30T15:37:07.675Z,101986.44
2022-08-30T15:39:34.782Z,101984.09
2022-08-30T15:42:02.021Z,101992.53
2022-08-30T15:44:31.457Z,101985.56
2022-08-30T15:47:00.850Z,101984.88
2022-08-30T15:49:30.060Z,101987.06
2022-08-30T15:52:01.744Z,101983.88
2022-08-30T15:54:28.316Z,101988.81
2022-08-30T15:56:59.386Z,101979.63
2022-08-30T15:59:28.034Z,101987.78
2022-08-30T16:01:54.898Z,101977.28
2022-08-30T16:04:26.253Z,101971.47
2022-08-30T16:06:53.457Z,101964.44
2022-08-30T16:09:20.743Z,101962.16
2022-08-30T16:11:48.128Z,101973.75
2022-08-30T16:14:14.772Z,101968.84
2022-08-30T16:16:42.131Z,101961.31
2022-08-30T16:19:09.415Z,101950.63
2022-08-30T16:21:37.332Z,101965.66
2022-08-30T16:24:05.839Z,101963.75
2022-08-30T16:26:34.496Z,101964.84
2022-08-30T16:29:02.144Z,101956.69
2022-08-30T16:31:31.650Z,101948.13
2022-08-30T16:34:02.844Z,101957.13
2022-08-30T16:36:32.440Z,101956.94
2022-08-30T16:39:02.614Z,101956.31
2022-08-30T16:41:31.487Z,101954.81
2022-08-30T16:44:01.723Z,101948.81
2022-08-30T16:46:30.992Z,101949.88
2022-08-30T16:49:01.362Z,101940.88
2022-08-30T16:51:31.537Z,101957.63
2022-08-30T16:54:02.076Z,101948.84
2022-08-30T16:56:32.911Z,101952.25
2022-08-30T16:59:02.474Z,101934.28
2022-08-30T17:01:34.947Z,101959.19
2022-08-30T17:04:02.231Z,101950.38
2022-08-30T17:06:28.909Z,101965.84
2022-08-30T17:08:56.309Z,101954.06
2022-08-30T17:11:25.953Z,101962.44
2022-08-30T17:13:53.036Z,101958.13
2022-08-30T17:16:22.476Z,101960.31
2022-08-30T17:18:59.750Z,101953.03
2022-08-30T17:21:30.424Z,101952.59
2022-08-30T17:24:01.435Z,101960.91
2022-08-30T17:26:31.119Z,101959.44
2022-08-30T17:28:58.157Z,101962.84
2022-08-30T17:34:17.387Z,101969.31
2022-08-30T17:36:44.011Z,101972.31
2022-08-30T17:39:11.826Z,101979.81
2022-08-30T17:41:45.188Z,101974.25
2022-08-30T17:44:19.047Z,101983.25
2022-08-30T17:46:45.758Z,101979.16
2022-08-30T17:49:13.053Z,101996.72
2022-08-30T17:51:42.531Z,101984.28
2022-08-30T17:54:13.115Z,101982.31
2022-08-30T17:56:51.124Z,101986.56
2022-08-30T17:59:17.898Z,101998.53
2022-08-30T18:01:44.993Z,102001.50
2022-08-30T18:04:14.013Z,102001.69
2022-08-30T18:06:46.384Z,102005.31
2022-08-30T18:09:13.255Z,102012.59
2022-08-30T18:11:41.286Z,102012.56
2022-08-30T18:14:10.818Z,102011.44
2022-08-30T18:16:38.577Z,102016.13
2022-08-30T18:19:14.295Z,102016.31
2022-08-30T18:21:41.799Z,102016.03
2022-08-30T18:24:08.934Z,102026.25
2022-08-30T18:26:42.911Z,102015.88
2022-08-30T18:29:10.581Z,102024.84
2022-08-30T18:31:37.098Z,102034.22
2022-08-30T18:34:03.866Z,102040.59
2022-08-30T18:36:31.020Z,102047.16
2022-08-30T18:39:00.930Z,102041.53
2022-08-30T18:41:30.063Z,102042.13
2022-08-30T18:44:17.128Z,102049.38
2022-08-30T18:46:56.350Z,102046.69
2022-08-30T18:49:24.326Z,102045.75
2022-08-30T18:51:50.881Z,102043.09
2022-08-30T18:54:20.938Z,102035.31
2022-08-30T18:56:47.551Z,102050.44
2022-08-30T18:59:14.163Z,102051.44
2022-08-30T19:01:42.512Z,102055.00
2022-08-30T19:04:11.403Z,102047.63
2022-08-30T19:06:49.963Z,102040.22
2022-08-30T19:09:18.997Z,102051.97
2022-08-30T19:11:45.525Z,102058.53
2022-08-30T19:14:12.244Z,102054.59
2022-08-30T19:16:40.220Z,102057.81
2022-08-30T19:19:10.045Z,102055.25
2022-08-30T19:21:40.101Z,102051.91
2022-08-30T19:24:07.824Z,102064.06
2022-08-30T19:26:35.831Z,102065.50
2022-08-30T19:29:03.216Z,102074.41
2022-08-30T19:31:29.838Z,102068.56
2022-08-30T19:33:56.597Z,102069.03
2022-08-30T19:36:26.273Z,102068.16
2022-08-30T19:38:55.821Z,102064.25
2022-08-30T19:41:22.948Z,102072.28
2022-08-30T19:43:51.037Z,102074.78
2022-08-30T19:46:17.875Z,102069.97
2022-08-30T19:48:44.474Z,102077.59
2022-08-30T19:51:13.764Z,102060.00
2022-08-30T19:53:40.882Z,102079.59
2022-08-30T19:56:08.070Z,102078.28
2022-08-30T19:58:34.732Z,102067.59
2022-08-30T20:01:11.623Z,102083.34
2022-08-30T20:03:39.892Z,102074.56
2022-08-30T20:06:07.497Z,102085.16
2022-08-30T20:08:34.595Z,102074.81
2022-08-30T20:11:01.136Z,102080.16
2022-08-30T20:13:28.269Z,102077.09
2022-08-30T20:15:58.955Z,102081.09
2022-08-30T20:18:26.295Z,102085.09
2022-08-30T20:20:53.543Z,102074.47
2022-08-30T20:23:21.668Z,102073.75
2022-08-30T20:24:23.739Z,101954.09
2022-08-30T20:25:54.747Z,102082.94
2022-08-30T20:28:22.092Z,102081.59
2022-08-30T20:30:49.544Z,102087.66
2022-08-30T20:33:19.975Z,102086.50
2022-08-30T20:35:49.538Z,102078.75
2022-08-30T20:38:21.697Z,102082.91
2022-08-30T20:40:50.927Z,102086.03
2022-08-30T20:43:18.979Z,102081.44
2022-08-30T20:45:46.472Z,102081.31
2022-08-30T20:48:13.851Z,102087.88
2022-08-30T20:50:43.805Z,102080.63
2022-08-30T20:53:11.216Z,102087.88
2022-08-30T20:55:45.336Z,102082.22
2022-08-30T20:58:12.936Z,102090.88
2022-08-30T21:00:39.943Z,102087.78
2022-08-30T21:03:26.084Z,102080.22
2022-08-30T21:05:54.950Z,102089.91
2022-08-30T21:08:21.558Z,102089.41
2022-08-30T21:10:50.555Z,102094.59
2022-08-30T21:13:17.283Z,102084.44
2022-08-30T21:15:46.074Z,102096.56
2022-08-30T21:18:14.178Z,102092.75
2022-08-30T21:20:41.330Z,102095.69
2022-08-30T21:23:08.088Z,102090.50
2022-08-30T21:25:38.493Z,102098.13
2022-08-30T21:28:07.718Z,102095.91
2022-08-30T21:30:35.684Z,102095.22
2022-08-30T21:33:06.391Z,102101.09
2022-08-30T21:35:52.195Z,102099.53
2022-08-30T21:38:19.965Z,102098.69
2022-08-30T21:40:48.902Z,102110.41
2022-08-30T21:43:16.101Z,102102.13
2022-08-30T21:45:43.862Z,102099.38
2022-08-30T21:48:14.974Z,102111.81
2022-08-30T21:50:44.811Z,102098.88
2022-08-30T21:53:11.468Z,102111.13
2022-08-30T21:55:42.119Z,102105.97
2022-08-30T21:58:10.474Z,102120.28
2022-08-30T22:00:37.010Z,102115.97
2022-08-30T22:03:03.901Z,102126.69
2022-08-30T22:05:33.041Z,102124.94
2022-08-30T22:07:59.923Z,102121.50
2022-08-30T22:10:29.999Z,102113.72
2022-08-30T22:12:59.011Z,102132.72
2022-08-30T22:15:26.853Z,102125.31
2022-08-30T22:17:55.857Z,102126.00
2022-08-30T22:20:24.867Z,102114.78
2022-08-30T22:22:56.562Z,102132.56
2022-08-30T22:25:25.407Z,102117.53
2022-08-30T22:27:52.074Z,102130.13
2022-08-30T22:30:18.715Z,102131.88
2022-08-30T22:32:45.280Z,102124.78
2022-08-30T22:35:14.306Z,102135.84
2022-08-30T22:37:41.749Z,102132.56
2022-08-30T22:40:14.255Z,102135.34
2022-08-30T22:42:41.035Z,102137.25
2022-08-30T22:45:17.693Z,102132.06
2022-08-30T22:47:46.531Z,102133.09
2022-08-30T22:50:13.301Z,102139.66
2022-08-30T22:52:41.067Z,102136.03
2022-08-30T22:55:08.249Z,102129.78
2022-08-30T22:57:37.243Z,102106.28
2022-08-30T23:00:11.928Z,102131.53
2022-08-30T23:02:38.655Z,102131.88
2022-08-30T23:05:05.702Z,102136.50
2022-08-30T23:07:32.287Z,102127.69
2022-08-30T23:09:59.303Z,102123.06
2022-08-30T23:12:26.712Z,102124.25
2022-08-30T23:14:55.960Z,102142.22
2022-08-30T23:17:22.550Z,102133.22
2022-08-30T23:19:49.168Z,102141.00
2022-08-30T23:22:16.137Z,102139.44
2022-08-30T23:25:01.464Z,102141.69
2022-08-30T23:27:46.444Z,102123.19
2022-08-30T23:30:31.923Z,102148.94
2022-08-30T23:33:17.265Z,102143.75
2022-08-30T23:36:05.205Z,102135.63
2022-08-30T23:38:50.383Z,102143.25
2022-08-30T23:41:37.868Z,102144.44
2022-08-30T23:44:23.280Z,102142.50
2022-08-30T23:47:09.008Z,102144.75
2022-08-30T23:49:55.102Z,102136.97
2022-08-30T23:52:40.334Z,102145.94
2022-08-30T23:55:26.718Z,102141.63
2022-08-30T23:58:11.601Z,102143.16
